createdAt,value
2019-04-16T00:00:11.822Z,1013.11
2019-04-16T00:01:08.225Z,1013.14
2019-04-16T00:02:08.216Z,1013.15
2019-04-16T00:03:08.203Z,1013.14
2019-04-16T00:04:08.192Z,1013.14
2019-04-16T00:05:08.203Z,1013.15
2019-04-16T00:06:08.171Z,1013.15
2019-04-16T00:07:08.203Z,1013.16
2019-04-16T00:08:19.315Z,1013.18
2019-04-16T00:09:09.145Z,1013.16
2019-04-16T00:10:08.151Z,1013.16
2019-04-16T00:11:08.153Z,1013.14
2019-04-16T00:12:08.122Z,1013.13
2019-04-16T00:13:08.101Z,1013.03
2019-04-16T00:14:08.103Z,1013.12
2019-04-16T00:15:08.098Z,1013.06
2019-04-16T00:16:12.722Z,1013.09
2019-04-16T00:17:09.044Z,1013.03
2019-04-16T00:18:08.034Z,1013.02
2019-04-16T00:19:08.033Z,1013.01
2019-04-16T00:20:08.013Z,1013.01
2019-04-16T00:21:10.047Z,1013.00
2019-04-16T00:22:11.535Z,1012.98
2019-04-16T00:23:07.981Z,1012.99
2019-04-16T00:24:07.965Z,1012.98
2019-04-16T00:25:07.994Z,1012.98
2019-04-16T00:26:07.990Z,1012.92
2019-04-16T00:27:07.936Z,1012.93
2019-04-16T00:28:07.922Z,1012.87
2019-04-16T00:29:07.952Z,1012.87
2019-04-16T00:30:07.904Z,1012.83
2019-04-16T00:31:07.915Z,1012.84
2019-04-16T00:32:09.630Z,1012.81
2019-04-16T00:33:10.666Z,1012.86
2019-04-16T00:34:07.855Z,1012.91
2019-04-16T00:35:07.907Z,1012.85
2019-04-16T00:36:07.830Z,1012.90
2019-04-16T00:37:07.855Z,1012.90
2019-04-16T00:38:07.817Z,1012.86
2019-04-16T00:39:07.817Z,1012.93
2019-04-16T00:40:07.817Z,1012.90
2019-04-16T00:41:07.773Z,1012.92
2019-04-16T00:42:07.921Z,1012.87
2019-04-16T00:43:07.889Z,1012.90
2019-04-16T00:44:07.970Z,1012.87
2019-04-16T00:45:07.998Z,1012.84
2019-04-16T00:46:08.231Z,1012.84
2019-04-16T00:47:07.747Z,1012.87
2019-04-16T00:48:07.696Z,1012.84
2019-04-16T00:49:07.686Z,1012.87
2019-04-16T00:50:07.675Z,1012.90
2019-04-16T00:51:07.730Z,1012.88
2019-04-16T00:52:07.680Z,1012.89
2019-04-16T00:53:08.898Z,1012.89
2019-04-16T00:54:10.336Z,1012.87
2019-04-16T00:55:07.627Z,1012.89
2019-04-16T00:56:07.621Z,1012.90
2019-04-16T00:57:07.602Z,1012.80
2019-04-16T00:58:07.651Z,1012.83
2019-04-16T00:59:07.577Z,1012.83
2019-04-16T01:00:07.559Z,1012.80
2019-04-16T01:01:07.556Z,1012.80
2019-04-16T01:02:07.588Z,1012.81
2019-04-16T01:03:07.531Z,1012.79
2019-04-16T01:04:07.526Z,1012.78
2019-04-16T01:05:07.507Z,1012.84
2019-04-16T01:06:08.402Z,1012.80
2019-04-16T01:07:07.515Z,1012.78
2019-04-16T01:08:07.470Z,1012.80
2019-04-16T01:09:07.456Z,1012.82
2019-04-16T01:10:07.454Z,1012.80
2019-04-16T01:11:07.436Z,1012.79
2019-04-16T01:12:07.447Z,1012.78
2019-04-16T01:13:07.614Z,1012.78
2019-04-16T01:14:07.404Z,1012.74
2019-04-16T01:15:07.394Z,1012.72
2019-04-16T01:16:07.440Z,1012.71
2019-04-16T01:17:07.367Z,1012.72
2019-04-16T01:18:08.885Z,1012.67
2019-04-16T01:19:09.975Z,1012.71
2019-04-16T01:20:11.607Z,1012.69
2019-04-16T01:21:08.324Z,1012.67
2019-04-16T01:22:07.315Z,1012.69
2019-04-16T01:23:07.331Z,1012.68
2019-04-16T01:24:07.289Z,1012.63
2019-04-16T01:25:07.285Z,1012.62
2019-04-16T01:26:07.277Z,1012.65
2019-04-16T01:27:07.261Z,1012.62
2019-04-16T01:28:07.276Z,1012.62
2019-04-16T01:29:07.234Z,1012.58
2019-04-16T01:30:07.246Z,1012.59
2019-04-16T01:31:08.308Z,1012.61
2019-04-16T01:32:10.287Z,1012.60
2019-04-16T01:33:07.214Z,1012.61
2019-04-16T01:34:07.181Z,1012.61
2019-04-16T01:35:07.804Z,1012.62
2019-04-16T01:36:07.161Z,1012.64
2019-04-16T01:37:07.152Z,1012.60
2019-04-16T01:38:07.169Z,1012.54
2019-04-16T01:39:15.593Z,1012.61
2019-04-16T01:40:08.109Z,1012.60
2019-04-16T01:41:07.131Z,1012.60
2019-04-16T01:42:07.085Z,1012.60
2019-04-16T01:43:07.100Z,1012.56
2019-04-16T01:44:07.099Z,1012.59
2019-04-16T01:45:07.055Z,1012.56
2019-04-16T01:46:07.068Z,1012.57
2019-04-16T01:47:07.038Z,1012.54
2019-04-16T01:48:08.194Z,1012.59
2019-04-16T01:49:09.706Z,1012.56
2019-04-16T01:50:06.997Z,1012.54
2019-04-16T01:51:06.996Z,1012.56
2019-04-16T01:52:06.978Z,1012.56
2019-04-16T01:53:06.997Z,1012.48
2019-04-16T01:54:06.982Z,1012.49
2019-04-16T01:55:06.945Z,1012.48
2019-04-16T01:56:06.940Z,1012.48
2019-04-16T01:57:06.918Z,1012.42
2019-04-16T01:58:06.915Z,1012.48
2019-04-16T01:59:06.923Z,1012.43
2019-04-16T02:00:08.418Z,1012.42
2019-04-16T02:01:08.149Z,1012.43
2019-04-16T02:02:06.861Z,1012.46
2019-04-16T02:03:06.858Z,1012.48
2019-04-16T02:04:06.869Z,1012.47
2019-04-16T02:05:06.833Z,1012.48
2019-04-16T02:06:06.823Z,1012.45
2019-04-16T02:07:06.806Z,1012.48
2019-04-16T02:08:06.795Z,1012.43
2019-04-16T02:09:06.846Z,1012.43
2019-04-16T02:10:07.995Z,1012.40
2019-04-16T02:11:09.837Z,1012.39
2019-04-16T02:12:06.753Z,1012.38
2019-04-16T02:13:06.791Z,1012.39
2019-04-16T02:14:06.879Z,1012.38
2019-04-16T02:15:06.822Z,1012.41
2019-04-16T02:16:06.735Z,1012.42
2019-04-16T02:17:06.692Z,1012.40
2019-04-16T02:18:06.684Z,1012.41
2019-04-16T02:19:06.697Z,1012.36
2019-04-16T02:20:07.422Z,1012.36
2019-04-16T02:21:09.558Z,1012.39
2019-04-16T02:22:06.644Z,1012.38
2019-04-16T02:23:06.626Z,1012.36
2019-04-16T02:24:06.674Z,1012.38
2019-04-16T02:25:06.612Z,1012.36
2019-04-16T02:26:06.596Z,1012.36
2019-04-16T02:27:06.582Z,1012.37
2019-04-16T02:28:06.571Z,1012.32
2019-04-16T02:29:06.585Z,1012.33
2019-04-16T02:30:06.733Z,1012.34
2019-04-16T02:31:12.841Z,1012.36
2019-04-16T02:32:07.578Z,1012.32
2019-04-16T02:33:06.538Z,1012.33
2019-04-16T02:34:06.642Z,1012.36
2019-04-16T02:35:06.623Z,1012.33
2019-04-16T02:36:06.658Z,1012.34
2019-04-16T02:37:06.650Z,1012.38
2019-04-16T02:38:10.377Z,1012.34
2019-04-16T02:39:07.503Z,1012.30
2019-04-16T02:40:06.773Z,1012.31
2019-04-16T02:41:06.427Z,1012.30
2019-04-16T02:42:06.419Z,1012.33
2019-04-16T02:43:07.675Z,1012.31
2019-04-16T02:44:06.391Z,1012.30
2019-04-16T02:45:06.408Z,1012.29
2019-04-16T02:46:06.379Z,1012.30
2019-04-16T02:47:07.811Z,1012.31
2019-04-16T02:48:06.346Z,1012.27
2019-04-16T02:49:06.344Z,1012.29
2019-04-16T02:50:06.348Z,1012.26
2019-04-16T02:51:08.237Z,1012.25
2019-04-16T02:52:06.308Z,1012.24
2019-04-16T02:53:06.293Z,1012.24
2019-04-16T02:54:06.285Z,1012.26
2019-04-16T02:55:09.146Z,1012.24
2019-04-16T02:56:06.266Z,1012.20
2019-04-16T02:57:06.547Z,1012.22
2019-04-16T02:58:06.236Z,1012.20
2019-04-16T02:59:12.201Z,1012.18
2019-04-16T03:00:07.236Z,1012.17
2019-04-16T03:01:06.410Z,1012.15
2019-04-16T03:02:06.195Z,1012.14
2019-04-16T03:03:06.184Z,1012.14
2019-04-16T03:04:06.174Z,1012.13
2019-04-16T03:05:06.187Z,1012.15
2019-04-16T03:06:06.148Z,1012.14
2019-04-16T03:07:06.173Z,1012.14
2019-04-16T03:08:06.296Z,1012.15
2019-04-16T03:09:09.133Z,1012.06
2019-04-16T03:10:06.133Z,1012.11
2019-04-16T03:11:06.115Z,1012.09
2019-04-16T03:12:06.078Z,1012.04
2019-04-16T03:13:06.068Z,1012.01
2019-04-16T03:14:06.162Z,1011.99
2019-04-16T03:15:06.046Z,1012.00
2019-04-16T03:16:07.516Z,1011.97
2019-04-16T03:17:09.654Z,1011.96
2019-04-16T03:18:06.011Z,1011.99
2019-04-16T03:19:06.003Z,1012.00
2019-04-16T03:20:06.014Z,1011.95
2019-04-16T03:21:06.170Z,1011.97
2019-04-16T03:22:05.974Z,1011.96
2019-04-16T03:23:06.795Z,1011.96
2019-04-16T03:24:09.325Z,1011.95
2019-04-16T03:25:05.934Z,1011.93
2019-04-16T03:26:05.951Z,1011.95
2019-04-16T03:27:05.954Z,1011.92
2019-04-16T03:28:05.907Z,1011.94
2019-04-16T03:29:05.887Z,1011.93
2019-04-16T03:30:06.354Z,1011.93
2019-04-16T03:31:08.749Z,1011.89
2019-04-16T03:32:06.174Z,1011.91
2019-04-16T03:33:12.338Z,1011.89
2019-04-16T03:34:06.854Z,1011.91
2019-04-16T03:35:05.821Z,1011.89
2019-04-16T03:36:05.836Z,1011.85
2019-04-16T03:37:05.831Z,1011.81
2019-04-16T03:38:06.265Z,1011.84
2019-04-16T03:39:05.775Z,1011.79
2019-04-16T03:40:16.093Z,1011.77
2019-04-16T03:41:06.788Z,1011.75
2019-04-16T03:42:05.745Z,1011.72
2019-04-16T03:43:05.771Z,1011.73
2019-04-16T03:44:05.723Z,1011.72
2019-04-16T03:45:09.177Z,1011.71
2019-04-16T03:46:05.789Z,1011.72
2019-04-16T03:47:05.897Z,1011.71
2019-04-16T03:48:05.677Z,1011.71
2019-04-16T03:49:05.674Z,1011.71
2019-04-16T03:50:05.658Z,1011.68
2019-04-16T03:51:05.649Z,1011.71
2019-04-16T03:52:08.773Z,1011.68
2019-04-16T03:53:05.620Z,1011.68
2019-04-16T03:54:05.933Z,1011.70
2019-04-16T03:55:05.778Z,1011.67
2019-04-16T03:56:05.622Z,1011.66
2019-04-16T03:57:05.574Z,1011.65
2019-04-16T03:58:07.136Z,1011.66
2019-04-16T03:59:10.786Z,1011.64
2019-04-16T04:00:11.088Z,1011.63
2019-04-16T04:01:06.553Z,1011.59
2019-04-16T04:02:05.523Z,1011.59
2019-04-16T04:03:05.510Z,1011.61
2019-04-16T04:04:05.496Z,1011.61
2019-04-16T04:05:06.807Z,1011.62
2019-04-16T04:06:07.011Z,1011.62
2019-04-16T04:07:05.605Z,1011.58
2019-04-16T04:08:05.602Z,1011.58
2019-04-16T04:09:05.558Z,1011.55
2019-04-16T04:10:05.434Z,1011.59
2019-04-16T04:11:09.067Z,1011.61
2019-04-16T04:12:06.412Z,1011.60
2019-04-16T04:13:05.789Z,1011.58
2019-04-16T04:14:05.393Z,1011.59
2019-04-16T04:15:05.373Z,1011.57
2019-04-16T04:16:05.364Z,1011.57
2019-04-16T04:17:06.965Z,1011.56
2019-04-16T04:18:07.924Z,1011.55
2019-04-16T04:19:06.341Z,1011.58
2019-04-16T04:20:05.325Z,1011.61
2019-04-16T04:21:05.320Z,1011.59
2019-04-16T04:22:05.319Z,1011.62
2019-04-16T04:23:05.309Z,1011.63
2019-04-16T04:24:05.279Z,1011.61
2019-04-16T04:25:05.281Z,1011.60
2019-04-16T04:26:05.532Z,1011.63
2019-04-16T04:27:05.278Z,1011.62
2019-04-16T04:28:05.258Z,1011.62
2019-04-16T04:29:06.258Z,1011.60
2019-04-16T04:30:05.210Z,1011.61
2019-04-16T04:31:05.200Z,1011.66
2019-04-16T04:32:05.234Z,1011.64
2019-04-16T04:33:08.919Z,1011.60
2019-04-16T04:34:05.178Z,1011.65
2019-04-16T04:35:05.161Z,1011.60
2019-04-16T04:36:05.158Z,1011.60
2019-04-16T04:37:05.170Z,1011.64
2019-04-16T04:38:05.122Z,1011.59
2019-04-16T04:39:08.998Z,1011.60
2019-04-16T04:40:06.098Z,1011.65
2019-04-16T04:41:05.091Z,1011.62
2019-04-16T04:42:05.127Z,1011.66
2019-04-16T04:43:05.068Z,1011.65
2019-04-16T04:44:05.357Z,1011.65
2019-04-16T04:45:08.348Z,1011.67
2019-04-16T04:46:05.028Z,1011.68
2019-04-16T04:47:05.062Z,1011.66
2019-04-16T04:48:05.025Z,1011.67
2019-04-16T04:49:04.997Z,1011.67
2019-04-16T04:50:04.999Z,1011.64
2019-04-16T04:51:08.009Z,1011.70
2019-04-16T04:52:05.007Z,1011.64
2019-04-16T04:53:04.954Z,1011.61
2019-04-16T04:54:04.950Z,1011.61
2019-04-16T04:55:04.930Z,1011.63
2019-04-16T04:56:04.930Z,1011.62
2019-04-16T04:57:04.922Z,1011.61
2019-04-16T04:58:04.942Z,1011.64
2019-04-16T04:59:05.315Z,1011.66
2019-04-16T05:00:05.658Z,1011.63
2019-04-16T05:01:04.920Z,1011.61
2019-04-16T05:02:04.865Z,1011.64
2019-04-16T05:03:04.900Z,1011.61
2019-04-16T05:04:04.855Z,1011.62
2019-04-16T05:05:04.817Z,1011.64
2019-04-16T05:06:04.807Z,1011.67
2019-04-16T05:07:05.018Z,1011.65
2019-04-16T05:08:04.828Z,1011.67
2019-04-16T05:09:04.773Z,1011.67
2019-04-16T05:10:07.451Z,1011.71
2019-04-16T05:11:04.749Z,1011.63
2019-04-16T05:12:07.829Z,1011.64
2019-04-16T05:13:04.777Z,1011.68
2019-04-16T05:14:04.735Z,1011.66
2019-04-16T05:15:04.708Z,1011.65
2019-04-16T05:16:07.043Z,1011.63
2019-04-16T05:17:06.513Z,1011.64
2019-04-16T05:18:05.904Z,1011.65
2019-04-16T05:19:04.715Z,1011.62
2019-04-16T05:20:04.667Z,1011.65
2019-04-16T05:21:04.642Z,1011.64
2019-04-16T05:22:04.627Z,1011.66
2019-04-16T05:23:04.627Z,1011.69
2019-04-16T05:24:04.629Z,1011.69
2019-04-16T05:25:04.597Z,1011.70
2019-04-16T05:26:05.331Z,1011.71
2019-04-16T05:27:05.528Z,1011.69
2019-04-16T05:28:04.569Z,1011.71
2019-04-16T05:29:04.581Z,1011.73
2019-04-16T05:30:04.575Z,1011.72
2019-04-16T05:31:04.527Z,1011.71
2019-04-16T05:32:04.527Z,1011.76
2019-04-16T05:33:05.572Z,1011.78
2019-04-16T05:34:06.075Z,1011.72
2019-04-16T05:35:09.175Z,1011.75
2019-04-16T05:36:05.476Z,1011.74
2019-04-16T05:37:04.459Z,1011.80
2019-04-16T05:38:04.451Z,1011.72
2019-04-16T05:39:04.461Z,1011.77
2019-04-16T05:40:04.431Z,1011.78
2019-04-16T05:41:13.204Z,1011.76
2019-04-16T05:42:05.404Z,1011.83
2019-04-16T05:43:04.392Z,1011.82
2019-04-16T05:44:04.402Z,1011.84
2019-04-16T05:45:05.482Z,1011.83
2019-04-16T05:46:05.462Z,1011.83
2019-04-16T05:47:04.355Z,1011.85
2019-04-16T05:48:04.336Z,1011.83
2019-04-16T05:49:04.350Z,1011.85
2019-04-16T05:50:04.312Z,1011.85
2019-04-16T05:51:04.299Z,1011.85
2019-04-16T05:52:04.294Z,1011.89
2019-04-16T05:53:05.444Z,1011.86
2019-04-16T05:54:04.316Z,1011.84
2019-04-16T05:55:04.265Z,1011.87
2019-04-16T05:56:04.266Z,1011.88
2019-04-16T05:57:04.235Z,1011.88
2019-04-16T05:58:04.219Z,1011.87
2019-04-16T05:59:04.242Z,1011.87
2019-04-16T06:00:09.286Z,1011.85
2019-04-16T06:01:05.204Z,1011.86
2019-04-16T06:02:04.178Z,1011.80
2019-04-16T06:03:04.164Z,1011.85
2019-04-16T06:04:04.155Z,1011.85
2019-04-16T06:05:04.174Z,1011.83
2019-04-16T06:06:04.130Z,1011.81
2019-04-16T06:07:07.595Z,1011.83
2019-04-16T06:08:06.300Z,1011.79
2019-04-16T06:09:04.098Z,1011.83
2019-04-16T06:10:06.810Z,1011.85
2019-04-16T06:11:04.074Z,1011.84
2019-04-16T06:12:05.894Z,1011.84
2019-04-16T06:13:04.056Z,1011.85
2019-04-16T06:14:04.081Z,1011.82
2019-04-16T06:15:04.041Z,1011.85
2019-04-16T06:16:04.052Z,1011.83
2019-04-16T06:17:04.022Z,1011.82
2019-04-16T06:18:05.364Z,1011.78
2019-04-16T06:19:03.994Z,1011.81
2019-04-16T06:20:04.101Z,1011.81
2019-04-16T06:21:03.963Z,1011.77
2019-04-16T06:22:03.984Z,1011.82
2019-04-16T06:23:03.952Z,1011.79
2019-04-16T06:24:04.249Z,1011.85
2019-04-16T06:25:08.377Z,1011.78
2019-04-16T06:26:04.943Z,1011.75
2019-04-16T06:27:03.899Z,1011.74
2019-04-16T06:28:03.883Z,1011.74
2019-04-16T06:29:03.877Z,1011.75
2019-04-16T06:30:03.861Z,1011.72
2019-04-16T06:31:05.658Z,1011.74
2019-04-16T06:32:03.883Z,1011.72
2019-04-16T06:33:03.843Z,1011.72
2019-04-16T06:34:03.816Z,1011.71
2019-04-16T06:35:03.817Z,1011.69
2019-04-16T06:36:03.956Z,1011.73
2019-04-16T06:37:03.782Z,1011.69
2019-04-16T06:38:03.801Z,1011.73
2019-04-16T06:39:03.768Z,1011.76
2019-04-16T06:40:03.770Z,1011.76
2019-04-16T06:41:04.269Z,1011.78
2019-04-16T06:42:03.743Z,1011.83
2019-04-16T06:43:03.715Z,1011.80
2019-04-16T06:44:04.196Z,1011.79
2019-04-16T06:45:04.900Z,1011.76
2019-04-16T06:46:05.469Z,1011.79
2019-04-16T06:47:03.683Z,1011.78
2019-04-16T06:48:03.660Z,1011.81
2019-04-16T06:49:03.661Z,1011.79
2019-04-16T06:50:03.658Z,1011.79
2019-04-16T06:51:03.651Z,1011.79
2019-04-16T06:52:03.641Z,1011.80
2019-04-16T06:53:03.606Z,1011.78
2019-04-16T06:54:03.605Z,1011.77
2019-04-16T06:55:04.337Z,1011.81
2019-04-16T06:56:05.603Z,1011.79
2019-04-16T06:57:03.585Z,1011.78
2019-04-16T06:58:03.552Z,1011.78
2019-04-16T06:59:03.548Z,1011.77
2019-04-16T07:00:07.000Z,1011.78
2019-04-16T07:01:06.847Z,1011.76
2019-04-16T07:02:03.568Z,1011.80
2019-04-16T07:03:03.504Z,1011.68
2019-04-16T07:04:06.601Z,1011.76
2019-04-16T07:05:03.472Z,1011.73
2019-04-16T07:06:03.975Z,1011.70
2019-04-16T07:07:07.859Z,1011.72
2019-04-16T07:08:03.444Z,1011.67
2019-04-16T07:09:03.431Z,1011.71
2019-04-16T07:10:03.419Z,1011.66
2019-04-16T07:11:03.404Z,1011.65
2019-04-16T07:12:03.396Z,1011.68
2019-04-16T07:13:03.417Z,1011.66
2019-04-16T07:14:03.370Z,1011.66
2019-04-16T07:15:03.365Z,1011.67
2019-04-16T07:16:03.353Z,1011.65
2019-04-16T07:17:03.386Z,1011.69
2019-04-16T07:18:05.488Z,1011.64
2019-04-16T07:19:03.316Z,1011.69
2019-04-16T07:20:04.757Z,1011.69
2019-04-16T07:21:03.297Z,1011.68
2019-04-16T07:22:03.291Z,1011.67
2019-04-16T07:23:03.299Z,1011.67
2019-04-16T07:24:03.318Z,1011.66
2019-04-16T07:25:05.236Z,1011.66
2019-04-16T07:26:04.295Z,1011.72
2019-04-16T07:27:03.321Z,1011.68
2019-04-16T07:28:03.346Z,1011.65
2019-04-16T07:29:03.206Z,1011.65
2019-04-16T07:30:06.933Z,1011.69
2019-04-16T07:31:04.184Z,1011.67
2019-04-16T07:32:03.259Z,1011.72
2019-04-16T07:33:03.186Z,1011.68
2019-04-16T07:34:03.149Z,1011.73
2019-04-16T07:35:03.136Z,1011.69
2019-04-16T07:36:03.147Z,1011.66
2019-04-16T07:37:03.119Z,1011.69
2019-04-16T07:38:05.596Z,1011.69
2019-04-16T07:39:05.074Z,1011.68
2019-04-16T07:40:08.309Z,1011.65
2019-04-16T07:41:04.267Z,1011.64
2019-04-16T07:42:10.312Z,1011.64
2019-04-16T07:43:04.075Z,1011.61
2019-04-16T07:44:07.853Z,1011.62
2019-04-16T07:45:04.024Z,1011.59
2019-04-16T07:46:03.022Z,1011.61
2019-04-16T07:47:03.001Z,1011.52
2019-04-16T07:48:06.073Z,1011.57
2019-04-16T07:49:02.999Z,1011.58
2019-04-16T07:50:02.971Z,1011.57
2019-04-16T07:51:04.887Z,1011.55
2019-04-16T07:52:06.987Z,1011.63
2019-04-16T07:53:04.192Z,1011.62
2019-04-16T07:54:03.277Z,1011.61
2019-04-16T07:55:02.934Z,1011.58
2019-04-16T07:56:02.901Z,1011.59
2019-04-16T07:57:02.889Z,1011.61
2019-04-16T07:58:02.878Z,1011.65
2019-04-16T07:59:02.918Z,1011.57
2019-04-16T08:00:08.049Z,1011.56
2019-04-16T08:01:03.844Z,1011.54
2019-04-16T08:02:02.832Z,1011.51
2019-04-16T08:03:02.859Z,1011.55
2019-04-16T08:04:03.253Z,1011.51
2019-04-16T08:05:07.466Z,1011.55
2019-04-16T08:06:03.780Z,1011.52
2019-04-16T08:07:02.773Z,1011.51
2019-04-16T08:08:02.902Z,1011.52
2019-04-16T08:09:02.773Z,1011.52
2019-04-16T08:10:03.312Z,1011.54
2019-04-16T08:11:02.729Z,1011.54
2019-04-16T08:12:02.739Z,1011.49
2019-04-16T08:13:02.712Z,1011.55
2019-04-16T08:14:02.805Z,1011.50
2019-04-16T08:15:13.929Z,1011.50
2019-04-16T08:16:04.311Z,1011.48
2019-04-16T08:17:02.665Z,1011.47
2019-04-16T08:18:02.807Z,1011.49
2019-04-16T08:19:02.639Z,1011.52
2019-04-16T08:20:02.686Z,1011.50
2019-04-16T08:21:10.138Z,1011.48
2019-04-16T08:22:03.701Z,1011.45
2019-04-16T08:23:02.590Z,1011.45
2019-04-16T08:24:02.629Z,1011.48
2019-04-16T08:25:03.989Z,1011.47
2019-04-16T08:26:04.722Z,1011.48
2019-04-16T08:27:03.545Z,1011.46
2019-04-16T08:28:02.537Z,1011.47
2019-04-16T08:29:02.560Z,1011.43
2019-04-16T08:30:04.041Z,1011.42
2019-04-16T08:31:02.507Z,1011.41
2019-04-16T08:32:02.494Z,1011.43
2019-04-16T08:33:02.483Z,1011.40
2019-04-16T08:34:02.478Z,1011.38
2019-04-16T08:35:02.488Z,1011.39
2019-04-16T08:36:02.466Z,1011.38
2019-04-16T08:37:02.458Z,1011.41
2019-04-16T08:38:02.426Z,1011.39
2019-04-16T08:39:05.812Z,1011.36
2019-04-16T08:40:02.402Z,1011.34
2019-04-16T08:41:02.424Z,1011.32
2019-04-16T08:42:02.377Z,1011.32
2019-04-16T08:43:02.431Z,1011.31
2019-04-16T08:44:03.796Z,1011.25
2019-04-16T08:45:07.317Z,1011.19
2019-04-16T08:46:03.333Z,1011.24
2019-04-16T08:47:02.335Z,1011.21
2019-04-16T08:48:02.338Z,1011.19
2019-04-16T08:49:02.303Z,1011.22
2019-04-16T08:50:02.325Z,1011.14
2019-04-16T08:51:04.661Z,1011.15
2019-04-16T08:52:02.283Z,1011.17
2019-04-16T08:53:02.265Z,1011.15
2019-04-16T08:54:02.254Z,1011.16
2019-04-16T08:55:02.239Z,1011.15
2019-04-16T08:56:02.250Z,1011.16
2019-04-16T08:57:02.218Z,1011.18
2019-04-16T08:58:06.035Z,1011.17
2019-04-16T08:59:02.194Z,1011.09
2019-04-16T09:00:02.433Z,1011.09
2019-04-16T09:01:02.171Z,1011.07
2019-04-16T09:02:02.158Z,1011.06
2019-04-16T09:03:02.144Z,1011.07
2019-04-16T09:04:03.090Z,1011.05
2019-04-16T09:05:05.905Z,1011.04
2019-04-16T09:06:04.459Z,1011.07
2019-04-16T09:07:11.379Z,1011.08
2019-04-16T09:08:12.261Z,1011.09
2019-04-16T09:09:12.490Z,1011.06
2019-04-16T09:10:16.273Z,1011.07
2019-04-16T09:11:04.349Z,1011.10
2019-04-16T09:12:02.075Z,1011.10
2019-04-16T09:13:04.709Z,1011.06
2019-04-16T09:14:02.021Z,1011.07
2019-04-16T09:15:02.266Z,1011.01
2019-04-16T09:16:02.160Z,1011.06
2019-04-16T09:17:01.985Z,1010.98
2019-04-16T09:18:01.977Z,1011.01
2019-04-16T09:19:01.968Z,1011.04
2019-04-16T09:20:05.600Z,1011.03
2019-04-16T09:21:01.966Z,1011.01
2019-04-16T09:22:01.935Z,1011.04
2019-04-16T09:23:01.921Z,1011.05
2019-04-16T09:24:08.288Z,1011.00
2019-04-16T09:25:02.895Z,1010.98
2019-04-16T09:26:13.015Z,1011.02
2019-04-16T09:27:02.881Z,1010.98
2019-04-16T09:28:02.395Z,1011.10
2019-04-16T09:29:08.186Z,1011.04
2019-04-16T09:30:02.836Z,1011.04
2019-04-16T09:31:01.992Z,1011.01
2019-04-16T09:32:01.826Z,1011.00
2019-04-16T09:33:02.420Z,1011.03
2019-04-16T09:34:05.294Z,1011.00
2019-04-16T09:35:08.912Z,1011.01
2019-04-16T09:36:02.799Z,1011.01
2019-04-16T09:37:01.767Z,1011.04
2019-04-16T09:38:01.747Z,1011.07
2019-04-16T09:39:01.737Z,1011.06
2019-04-16T09:40:15.619Z,1011.11
2019-04-16T09:41:02.734Z,1011.07
2019-04-16T09:42:01.734Z,1011.06
2019-04-16T09:43:01.707Z,1011.11
2019-04-16T09:44:01.678Z,1011.10
2019-04-16T09:45:04.815Z,1011.11
2019-04-16T09:46:10.131Z,1011.07
2019-04-16T09:47:05.179Z,1011.08
2019-04-16T09:48:03.702Z,1011.09
2019-04-16T09:49:04.933Z,1011.10
2019-04-16T09:50:01.622Z,1011.08
2019-04-16T09:51:01.605Z,1011.11
2019-04-16T09:52:03.939Z,1011.12
2019-04-16T09:53:02.067Z,1011.06
2019-04-16T09:54:01.566Z,1011.11
2019-04-16T09:55:01.556Z,1011.04
2019-04-16T09:56:01.546Z,1011.07
2019-04-16T09:57:01.560Z,1011.07
2019-04-16T09:58:06.083Z,1011.05
2019-04-16T09:59:02.509Z,1011.02
2019-04-16T10:00:01.501Z,1011.00
2019-04-16T10:01:01.490Z,1011.02
2019-04-16T10:02:01.510Z,1010.99
2019-04-16T10:03:01.471Z,1011.05
2019-04-16T10:04:01.480Z,1011.04
2019-04-16T10:05:01.473Z,1011.03
2019-04-16T10:06:01.440Z,1010.99
2019-04-16T10:07:01.445Z,1010.97
2019-04-16T10:08:01.422Z,1010.92
2019-04-16T10:09:01.410Z,1010.90
2019-04-16T10:10:01.389Z,1010.89
2019-04-16T10:11:05.619Z,1010.90
2019-04-16T10:12:01.396Z,1010.85
2019-04-16T10:13:01.359Z,1010.83
2019-04-16T10:14:01.349Z,1010.86
2019-04-16T10:15:01.332Z,1010.83
2019-04-16T10:16:01.343Z,1010.82
2019-04-16T10:17:01.370Z,1010.82
2019-04-16T10:18:02.331Z,1010.78
2019-04-16T10:19:01.316Z,1010.82
2019-04-16T10:20:01.290Z,1010.76
2019-04-16T10:21:01.271Z,1010.85
2019-04-16T10:22:01.279Z,1010.78
2019-04-16T10:23:01.280Z,1010.78
2019-04-16T10:24:01.238Z,1010.81
2019-04-16T10:25:01.241Z,1010.83
2019-04-16T10:26:01.212Z,1010.80
2019-04-16T10:27:04.256Z,1010.80
2019-04-16T10:28:01.853Z,1010.80
2019-04-16T10:29:01.193Z,1010.82
2019-04-16T10:30:01.196Z,1010.77
2019-04-16T10:31:01.155Z,1010.75
2019-04-16T10:33:02.296Z,1010.72
2019-04-16T10:34:01.121Z,1010.69
2019-04-16T10:35:01.124Z,1010.70
2019-04-16T10:36:04.626Z,1010.66
2019-04-16T10:37:01.085Z,1010.60
2019-04-16T10:38:01.109Z,1010.68
2019-04-16T10:39:01.077Z,1010.61
2019-04-16T10:40:01.058Z,1010.67
2019-04-16T10:41:01.067Z,1010.59
2019-04-16T10:42:01.072Z,1010.59
2019-04-16T10:43:01.062Z,1010.61
2019-04-16T10:44:01.026Z,1010.60
2019-04-16T10:45:01.016Z,1010.60
2019-04-16T10:46:00.996Z,1010.56
2019-04-16T10:47:00.973Z,1010.56
2019-04-16T10:48:01.032Z,1010.53
2019-04-16T10:49:00.990Z,1010.52
2019-04-16T10:50:00.965Z,1010.55
2019-04-16T10:51:00.929Z,1010.54
2019-04-16T10:52:00.932Z,1010.54
2019-04-16T10:53:00.944Z,1010.55
2019-04-16T10:54:00.962Z,1010.54
2019-04-16T10:55:00.907Z,1010.53
2019-04-16T10:56:00.873Z,1010.56
2019-04-16T10:57:00.895Z,1010.52
2019-04-16T10:58:00.880Z,1010.54
2019-04-16T10:59:00.866Z,1010.49
2019-04-16T11:00:00.909Z,1010.55
2019-04-16T11:01:00.882Z,1010.49
2019-04-16T11:02:00.826Z,1010.47
2019-04-16T11:03:00.793Z,1010.48
2019-04-16T11:04:00.835Z,1010.51
2019-04-16T11:05:02.994Z,1010.50
2019-04-16T11:06:00.790Z,1010.48
2019-04-16T11:07:00.760Z,1010.47
2019-04-16T11:08:00.739Z,1010.45
2019-04-16T11:09:00.758Z,1010.48
2019-04-16T11:10:00.720Z,1010.44
2019-04-16T11:11:00.710Z,1010.46
2019-04-16T11:12:04.795Z,1010.38
2019-04-16T11:13:00.689Z,1010.39
2019-04-16T11:14:00.766Z,1010.39
2019-04-16T11:15:00.728Z,1010.40
2019-04-16T11:16:00.648Z,1010.39
2019-04-16T11:17:00.655Z,1010.35
2019-04-16T11:18:00.626Z,1010.31
2019-04-16T11:19:00.634Z,1010.34
2019-04-16T11:20:00.613Z,1010.31
2019-04-16T11:21:00.603Z,1010.33
2019-04-16T11:22:03.895Z,1010.36
2019-04-16T11:23:00.594Z,1010.31
2019-04-16T11:24:00.583Z,1010.29
2019-04-16T11:25:00.563Z,1010.34
2019-04-16T11:26:00.534Z,1010.34
2019-04-16T11:27:00.524Z,1010.32
2019-04-16T11:28:00.517Z,1010.31
2019-04-16T11:29:00.541Z,1010.37
2019-04-16T11:30:00.490Z,1010.33
2019-04-16T11:31:00.496Z,1010.35
2019-04-16T11:32:00.486Z,1010.30
2019-04-16T11:33:00.472Z,1010.30
2019-04-16T11:34:00.479Z,1010.31
2019-04-16T11:35:00.491Z,1010.34
2019-04-16T11:36:00.448Z,1010.29
2019-04-16T11:37:00.410Z,1010.30
2019-04-16T11:38:00.404Z,1010.35
2019-04-16T11:39:00.446Z,1010.29
2019-04-16T11:40:00.533Z,1010.28
2019-04-16T11:41:00.369Z,1010.29
2019-04-16T11:42:00.365Z,1010.33
2019-04-16T11:43:00.383Z,1010.29
2019-04-16T11:44:14.280Z,1010.28
2019-04-16T11:45:01.357Z,1010.30
2019-04-16T11:46:00.311Z,1010.27
2019-04-16T11:47:00.299Z,1010.28
2019-04-16T11:48:00.327Z,1010.23
2019-04-16T11:49:00.294Z,1010.26
2019-04-16T11:50:00.308Z,1010.23
2019-04-16T11:51:00.274Z,1010.28
2019-04-16T11:52:00.305Z,1010.24
2019-04-16T11:53:00.265Z,1010.26
2019-04-16T11:54:00.249Z,1010.22
2019-04-16T11:55:00.849Z,1010.28
2019-04-16T11:56:00.223Z,1010.24
2019-04-16T11:57:00.361Z,1010.26
2019-04-16T11:58:00.176Z,1010.24
2019-04-16T11:59:00.172Z,1010.20
2019-04-16T12:00:07.473Z,1010.21
2019-04-16T12:01:01.147Z,1010.19
2019-04-16T12:02:00.214Z,1010.24
2019-04-16T12:03:00.119Z,1010.23
2019-04-16T12:04:00.144Z,1010.23
2019-04-16T12:05:00.161Z,1010.25
2019-04-16T12:06:00.128Z,1010.25